Baker, NV

2:04 AM PDT on May 21, 2018 (GMT -0700)
SNO Estates | | Change Station

Elev 6417 ft 39.01 °N, 114.20 °W | Updated 29 seconds ago

Partly Cloudy
Partly Cloudy
46.9 °F
Feels Like 46 °F
N
3.2
Wind Variable Wind from SW

Today
High -- | Low -- °F
--% Chance of Precip.
Yesterday
High -- | Low -- °F
Precip. -- in
Pressure 29.75 in
Visibility 10.0 miles
Clouds Mostly Cloudy 11000 ft
Windchill 46 °F
Dew Point 38 °F
Humidity 70%
Rainfall 0.00 in
Snow Depth Not available.
5:18 AM 7:47 PM
Waxing Crescent, 41% visible
METAR KELY 210853Z AUTO 03003KT 10SM BKN110 08/06 A2997 RMK AO2 SLP073 60000 T00830061 56006
Pressure 29.75 in
Visibility 10.0 miles
Clouds Mostly Cloudy 11000 ft
Windchill 46 °F
Dew Point 38 °F
Humidity 70%
Rainfall 0.00 in
Snow Depth Not available.
5:18 AM 7:47 PM
Waxing Crescent, 41% visible
METAR KELY 210853Z AUTO 03003KT 10SM BKN110 08/06 A2997 RMK AO2 SLP073 60000 T00830061 56006

Get Severe Weather Alerts

Thanks for signing up!

Be on the lookout for a verification email in your inbox.

You'll start receiving the daily forecast at 6 AM.

×

10-Day Weather Forecast

Almanac

Astronomy

May. 21, 2018 Rise Set
Actual Time
Civil Twilight
Nautical Twilight
Astronomical Twilight
Moon
Length of Visible Light
Length of Day
Tomorrow will be .
, % of the Moon is Illuminated

Today's Extremes

State Highs State Lows

Community

WunderPhotos

Category 6

Welcome to Category 6. This is the collective home for Weather Underground's featured writeups by Dr. Jeff Masters (right), Bob Henson (left), Chris Burt, and other regular contributors.

Nearby

Air Quality

  Air Quality AQ Index Pollutant
Not available.

Snow Depth

Station Depth Elevation

Earthquake Activity

City Distance Mag. Time & Date
Minimum magnitude displayed is 2.5.

Coastal Water Temperatures

Place Temperature

Stations

Nearby Weather Stations

Station Location Temp. Windchill Dew Point Humidity Wind Precip. Elev Updated Type
                   

Watches & Warnings

There are currently no watches in effect.